sensor_id;sensor_type;location;lat;lon;timestamp;temperature;humidity
37285;DHT22;23172;53.550;9.964;2024-01-30T01:55:35;7.60;96.70
37285;DHT22;23172;53.550;9.964;2024-01-30T02:00:38;7.60;96.80
37285;DHT22;23172;53.550;9.964;2024-01-30T02:05:42;7.60;96.80
37285;DHT22;23172;53.550;9.964;2024-01-30T02:10:45;7.60;96.80
37285;DHT22;23172;53.550;9.964;2024-01-30T02:15:49;7.70;96.70
37285;DHT22;23172;53.550;9.964;2024-01-30T02:20:54;7.70;96.70
37285;DHT22;23172;53.550;9.964;2024-01-30T02:25:57;7.70;96.70
37285;DHT22;23172;53.550;9.964;2024-01-30T02:30:59;7.70;96.60
37285;DHT22;23172;53.550;9.964;2024-01-30T02:36:01;7.70;96.50
37285;DHT22;23172;53.550;9.964;2024-01-30T02:41:04;7.70;96.50
37285;DHT22;23172;53.550;9.964;2024-01-30T02:46:06;7.70;96.50
37285;DHT22;23172;53.550;9.964;2024-01-30T02:51:08;7.70;96.50
37285;DHT22;23172;53.550;9.964;2024-01-30T02:56:12;7.60;96.60
37285;DHT22;23172;53.550;9.964;2024-01-30T03:01:14;7.70;96.60
37285;DHT22;23172;53.550;9.964;2024-01-30T03:06:16;7.70;96.60
37285;DHT22;23172;53.550;9.964;2024-01-30T03:11:19;7.70;96.50
37285;DHT22;23172;53.550;9.964;2024-01-30T03:16:21;7.70;96.50
37285;DHT22;23172;53.550;9.964;2024-01-30T03:21:23;7.60;96.60
37285;DHT22;23172;53.550;9.964;2024-01-30T03:26:26;7.60;96.70
37285;DHT22;23172;53.550;9.964;2024-01-30T03:31:28;7.60;96.80
37285;DHT22;23172;53.550;9.964;2024-01-30T03:36:30;7.50;96.90
37285;DHT22;23172;53.550;9.964;2024-01-30T03:41:34;7.50;97.00
37285;DHT22;23172;53.550;9.964;2024-01-30T03:46:36;7.40;97.20
37285;DHT22;23172;53.550;9.964;2024-01-30T03:51:38;7.40;97.50
37285;DHT22;23172;53.550;9.964;2024-01-30T03:56:42;7.30;97.60
37285;DHT22;23172;53.550;9.964;2024-01-30T04:01:46;7.30;97.80
37285;DHT22;23172;53.550;9.964;2024-01-30T04:06:48;7.30;97.90
37285;DHT22;23172;53.550;9.964;2024-01-30T04:11:51;7.20;97.90
37285;DHT22;23172;53.550;9.964;2024-01-30T04:16:53;7.20;98.00
37285;DHT22;23172;53.550;9.964;2024-01-30T04:21:55;7.20;98.10
37285;DHT22;23172;53.550;9.964;2024-01-30T04:26:58;7.10;98.10
37285;DHT22;23172;53.550;9.964;2024-01-30T04:32:00;7.10;98.30
37285;DHT22;23172;53.550;9.964;2024-01-30T04:37:02;7.10;98.50
37285;DHT22;23172;53.550;9.964;2024-01-30T04:42:05;7.10;98.60
37285;DHT22;23172;53.550;9.964;2024-01-30T04:47:07;7.00;98.70
37285;DHT22;23172;53.550;9.964;2024-01-30T04:52:11;7.00;98.90
37285;DHT22;23172;53.550;9.964;2024-01-30T04:57:14;6.90;99.00
37285;DHT22;23172;53.550;9.964;2024-01-30T05:02:16;6.90;99.20
37285;DHT22;23172;53.550;9.964;2024-01-30T05:07:18;6.90;99.40
37285;DHT22;23172;53.550;9.964;2024-01-30T05:12:21;6.90;99.50
37285;DHT22;23172;53.550;9.964;2024-01-30T05:17:23;6.80;99.60
37285;DHT22;23172;53.550;9.964;2024-01-30T05:22:25;6.80;99.80
37285;DHT22;23172;53.550;9.964;2024-01-30T05:27:28;6.80;99.90
37285;DHT22;23172;53.550;9.964;2024-01-30T05:32:30;6.80;99.90
37285;DHT22;23172;53.550;9.964;2024-01-30T05:37:32;6.90;99.90
37285;DHT22;23172;53.550;9.964;2024-01-30T05:42:35;6.90;99.90
37285;DHT22;23172;53.550;9.964;2024-01-30T05:47:37;6.80;99.90
37285;DHT22;23172;53.550;9.964;2024-01-30T05:52:39;6.80;99.90
37285;DHT22;23172;53.550;9.964;2024-01-30T05:57:42;6.80;99.90
37285;DHT22;23172;53.550;9.964;2024-01-30T06:02:44;6.80;99.90
37285;DHT22;23172;53.550;9.964;2024-01-30T06:07:46;6.80;99.90
37285;DHT22;23172;53.550;9.964;2024-01-30T06:12:49;6.70;99.90
37285;DHT22;23172;53.550;9.964;2024-01-30T06:17:51;6.70;99.90
37285;DHT22;23172;53.550;9.964;2024-01-30T06:22:53;6.70;99.90
37285;DHT22;23172;53.550;9.964;2024-01-30T06:27:56;6.70;99.90
37285;DHT22;23172;53.550;9.964;2024-01-30T06:32:58;6.80;99.90
37285;DHT22;23172;53.550;9.964;2024-01-30T06:38:00;6.80;99.90
37285;DHT22;23172;53.550;9.964;2024-01-30T06:43:04;6.80;99.90
37285;DHT22;23172;53.550;9.964;2024-01-30T06:48:07;6.80;99.90
37285;DHT22;23172;53.550;9.964;2024-01-30T06:53:09;6.80;99.90
37285;DHT22;23172;53.550;9.964;2024-01-30T06:58:12;6.80;99.90
37285;DHT22;23172;53.550;9.964;2024-01-30T07:03:14;6.80;99.90
37285;DHT22;23172;53.550;9.964;2024-01-30T07:08:16;6.80;99.90
37285;DHT22;23172;53.550;9.964;2024-01-30T07:13:19;6.80;99.90
37285;DHT22;23172;53.550;9.964;2024-01-30T07:18:21;6.80;99.90
37285;DHT22;23172;53.550;9.964;2024-01-30T07:23:23;6.80;99.90
37285;DHT22;23172;53.550;9.964;2024-01-30T07:28:26;6.80;99.90
37285;DHT22;23172;53.550;9.964;2024-01-30T07:33:28;6.90;99.90
37285;DHT22;23172;53.550;9.964;2024-01-30T07:43:35;6.90;99.90
37285;DHT22;23172;53.550;9.964;2024-01-30T07:48:37;7.00;99.90
37285;DHT22;23172;53.550;9.964;2024-01-30T07:53:39;7.00;99.90
37285;DHT22;23172;53.550;9.964;2024-01-30T08:04:40;7.20;99.90
37285;DHT22;23172;53.550;9.964;2024-01-30T08:09:42;7.20;99.90
37285;DHT22;23172;53.550;9.964;2024-01-30T08:14:44;7.20;99.90
37285;DHT22;23172;53.550;9.964;2024-01-30T08:19:47;7.30;99.90
37285;DHT22;23172;53.550;9.964;2024-01-30T08:24:49;7.40;99.90
37285;DHT22;23172;53.550;9.964;2024-01-30T08:29:51;7.50;99.90
37285;DHT22;23172;53.550;9.964;2024-01-30T08:34:54;7.60;99.90
37285;DHT22;23172;53.550;9.964;2024-01-30T08:39:56;7.60;99.90
37285;DHT22;23172;53.550;9.964;2024-01-30T08:44:58;7.70;99.90
37285;DHT22;23172;53.550;9.964;2024-01-30T08:50:01;7.70;99.90
37285;DHT22;23172;53.550;9.964;2024-01-30T08:55:04;7.80;99.90
37285;DHT22;23172;53.550;9.964;2024-01-30T09:00:07;7.80;99.90
37285;DHT22;23172;53.550;9.964;2024-01-30T09:05:11;7.90;99.90
37285;DHT22;23172;53.550;9.964;2024-01-30T09:10:13;7.90;99.90
37285;DHT22;23172;53.550;9.964;2024-01-30T09:15:15;7.90;99.90
37285;DHT22;23172;53.550;9.964;2024-01-30T09:20:18;8.00;99.90
37285;DHT22;23172;53.550;9.964;2024-01-30T09:25:20;8.10;99.90
37285;DHT22;23172;53.550;9.964;2024-01-30T09:30:22;8.20;99.90
37285;DHT22;23172;53.550;9.964;2024-01-30T09:35:26;8.20;99.90
37285;DHT22;23172;53.550;9.964;2024-01-30T09:40:28;8.30;99.90
37285;DHT22;23172;53.550;9.964;2024-01-30T09:45:30;8.30;99.90
37285;DHT22;23172;53.550;9.964;2024-01-30T09:50:35;8.40;99.90
37285;DHT22;23172;53.550;9.964;2024-01-30T09:55:38;8.50;99.90
37285;DHT22;23172;53.550;9.964;2024-01-30T10:00:40;8.60;99.90
37285;DHT22;23172;53.550;9.964;2024-01-30T10:05:51;8.70;99.90
37285;DHT22;23172;53.550;9.964;2024-01-30T10:10:53;8.70;99.90
37285;DHT22;23172;53.550;9.964;2024-01-30T10:15:55;8.80;99.90
37285;DHT22;23172;53.550;9.964;2024-01-30T10:21:00;8.90;99.90
37285;DHT22;23172;53.550;9.964;2024-01-30T10:26:03;9.00;99.90
37285;DHT22;23172;53.550;9.964;2024-01-30T10:31:05;9.10;99.90
37285;DHT22;23172;53.550;9.964;2024-01-30T10:36:13;9.20;99.90
37285;DHT22;23172;53.550;9.964;2024-01-30T10:41:20;9.30;99.90
37285;DHT22;23172;53.550;9.964;2024-01-30T10:46:28;9.40;99.90
37285;DHT22;23172;53.550;9.964;2024-01-30T10:51:34;9.50;99.90
37285;DHT22;23172;53.550;9.964;2024-01-30T10:56:39;9.60;99.90
37285;DHT22;23172;53.550;9.964;2024-01-30T11:01:41;9.70;99.90
37285;DHT22;23172;53.550;9.964;2024-01-30T11:06:45;9.70;99.90
37285;DHT22;23172;53.550;9.964;2024-01-30T11:11:51;9.80;99.80
37285;DHT22;23172;53.550;9.964;2024-01-30T11:16:56;9.80;99.90
37285;DHT22;23172;53.550;9.964;2024-01-30T11:22:00;9.90;99.80
37285;DHT22;23172;53.550;9.964;2024-01-30T11:27:03;10.00;99.70
37285;DHT22;23172;53.550;9.964;2024-01-30T11:32:09;10.00;99.70
37285;DHT22;23172;53.550;9.964;2024-01-30T11:37:13;10.10;99.60
37285;DHT22;23172;53.550;9.964;2024-01-30T11:42:16;10.10;99.50
37285;DHT22;23172;53.550;9.964;2024-01-30T11:47:18;10.20;99.50
37285;DHT22;23172;53.550;9.964;2024-01-30T11:52:22;10.20;99.50
37285;DHT22;23172;53.550;9.964;2024-01-30T11:57:24;10.30;99.70
37285;DHT22;23172;53.550;9.964;2024-01-30T12:02:26;10.40;99.70
37285;DHT22;23172;53.550;9.964;2024-01-30T12:07:29;10.50;99.70
37285;DHT22;23172;53.550;9.964;2024-01-30T12:12:32;10.70;99.70
37285;DHT22;23172;53.550;9.964;2024-01-30T12:17:34;10.80;99.70
37285;DHT22;23172;53.550;9.964;2024-01-30T12:22:39;10.90;99.70
37285;DHT22;23172;53.550;9.964;2024-01-30T12:27:43;10.90;99.70
37285;DHT22;23172;53.550;9.964;2024-01-30T12:32:46;11.00;99.60
37285;DHT22;23172;53.550;9.964;2024-01-30T12:37:49;11.10;99.60
37285;DHT22;23172;53.550;9.964;2024-01-30T12:42:52;11.10;99.90
37285;DHT22;23172;53.550;9.964;2024-01-30T12:47:54;11.20;99.50
37285;DHT22;23172;53.550;9.964;2024-01-30T12:52:57;11.20;99.40
37285;DHT22;23172;53.550;9.964;2024-01-30T12:58:00;11.20;99.30
37285;DHT22;23172;53.550;9.964;2024-01-30T13:03:02;11.20;99.30
37285;DHT22;23172;53.550;9.964;2024-01-30T13:08:06;11.20;99.30
37285;DHT22;23172;53.550;9.964;2024-01-30T13:13:08;11.20;99.30
37285;DHT22;23172;53.550;9.964;2024-01-30T13:18:10;11.20;99.40
37285;DHT22;23172;53.550;9.964;2024-01-30T13:23:13;11.20;99.30
37285;DHT22;23172;53.550;9.964;2024-01-30T13:28:15;11.20;99.30
37285;DHT22;23172;53.550;9.964;2024-01-30T13:33:17;11.20;99.40
37285;DHT22;23172;53.550;9.964;2024-01-30T13:38:20;11.20;99.50
37285;DHT22;23172;53.550;9.964;2024-01-30T13:43:22;11.20;99.60
37285;DHT22;23172;53.550;9.964;2024-01-30T13:48:24;11.20;99.60
37285;DHT22;23172;53.550;9.964;2024-01-30T13:53:27;11.20;99.70
37285;DHT22;23172;53.550;9.964;2024-01-30T13:58:29;11.20;99.80
37285;DHT22;23172;53.550;9.964;2024-01-30T14:03:31;11.20;99.80
37285;DHT22;23172;53.550;9.964;2024-01-30T14:08:34;11.30;99.90
37285;DHT22;23172;53.550;9.964;2024-01-30T14:13:48;11.30;99.90
37285;DHT22;23172;53.550;9.964;2024-01-30T14:19:03;11.30;99.90
37285;DHT22;23172;53.550;9.964;2024-01-30T14:24:07;11.30;99.90
37285;DHT22;23172;53.550;9.964;2024-01-30T14:29:09;11.30;99.90
37285;DHT22;23172;53.550;9.964;2024-01-30T14:34:11;11.30;99.90
37285;DHT22;23172;53.550;9.964;2024-01-30T14:39:14;11.30;99.90
37285;DHT22;23172;53.550;9.964;2024-01-30T14:44:17;11.30;99.90
37285;DHT22;23172;53.550;9.964;2024-01-30T14:49:19;11.40;99.90
37285;DHT22;23172;53.550;9.964;2024-01-30T14:54:22;11.40;99.90
37285;DHT22;23172;53.550;9.964;2024-01-30T14:59:24;11.40;99.90
37285;DHT22;23172;53.550;9.964;2024-01-30T15:04:26;11.40;99.90
37285;DHT22;23172;53.550;9.964;2024-01-30T15:09:30;11.40;99.90
37285;DHT22;23172;53.550;9.964;2024-01-30T15:14:32;11.40;99.90
37285;DHT22;23172;53.550;9.964;2024-01-30T15:19:34;11.50;99.90
37285;DHT22;23172;53.550;9.964;2024-01-30T15:24:37;11.50;99.90
37285;DHT22;23172;53.550;9.964;2024-01-30T15:29:39;11.50;99.90
37285;DHT22;23172;53.550;9.964;2024-01-30T15:34:41;11.50;99.90
37285;DHT22;23172;53.550;9.964;2024-01-30T15:39:45;11.50;99.90
37285;DHT22;23172;53.550;9.964;2024-01-30T15:44:47;11.50;99.90
37285;DHT22;23172;53.550;9.964;2024-01-30T15:49:49;11.50;99.90
37285;DHT22;23172;53.550;9.964;2024-01-30T15:54:52;11.50;99.90
37285;DHT22;23172;53.550;9.964;2024-01-30T15:59:54;11.50;99.90
37285;DHT22;23172;53.550;9.964;2024-01-30T16:04:56;11.50;99.90
37285;DHT22;23172;53.550;9.964;2024-01-30T16:09:59;11.50;99.90
37285;DHT22;23172;53.550;9.964;2024-01-30T16:15:02;11.40;99.90
37285;DHT22;23172;53.550;9.964;2024-01-30T16:20:05;11.40;99.90
37285;DHT22;23172;53.550;9.964;2024-01-30T16:25:10;11.30;99.90
37285;DHT22;23172;53.550;9.964;2024-01-30T16:30:12;11.30;99.90
37285;DHT22;23172;53.550;9.964;2024-01-30T16:35:14;11.20;99.90
37285;DHT22;23172;53.550;9.964;2024-01-30T16:40:18;11.20;99.90
37285;DHT22;23172;53.550;9.964;2024-01-30T16:45:19;11.30;99.90
37285;DHT22;23172;53.550;9.964;2024-01-30T16:50:22;11.30;99.90
37285;DHT22;23172;53.550;9.964;2024-01-30T16:55:25;11.30;99.90
37285;DHT22;23172;53.550;9.964;2024-01-30T17:00:27;11.30;99.90
37285;DHT22;23172;53.550;9.964;2024-01-30T17:05:30;11.30;99.90
37285;DHT22;23172;53.550;9.964;2024-01-30T17:10:33;11.40;99.90
37285;DHT22;23172;53.550;9.964;2024-01-30T17:15:35;11.40;99.90
37285;DHT22;23172;53.550;9.964;2024-01-30T17:20:37;11.40;99.90
37285;DHT22;23172;53.550;9.964;2024-01-30T17:25:40;11.50;99.90
37285;DHT22;23172;53.550;9.964;2024-01-30T17:30:42;11.50;99.90
37285;DHT22;23172;53.550;9.964;2024-01-30T17:35:44;11.50;99.90
37285;DHT22;23172;53.550;9.964;2024-01-30T17:40:47;11.50;99.90
37285;DHT22;23172;53.550;9.964;2024-01-30T17:45:51;11.50;99.90
37285;DHT22;23172;53.550;9.964;2024-01-30T17:50:52;11.50;99.90
37285;DHT22;23172;53.550;9.964;2024-01-30T17:55:56;11.50;99.90
37285;DHT22;23172;53.550;9.964;2024-01-30T18:01:01;11.50;99.90
37285;DHT22;23172;53.550;9.964;2024-01-30T18:06:04;11.50;99.90
37285;DHT22;23172;53.550;9.964;2024-01-30T18:11:07;11.50;99.90
37285;DHT22;23172;53.550;9.964;2024-01-30T18:16:09;11.50;99.90
37285;DHT22;23172;53.550;9.964;2024-01-30T18:21:11;11.50;99.90
37285;DHT22;23172;53.550;9.964;2024-01-30T18:26:17;11.50;99.90
37285;DHT22;23172;53.550;9.964;2024-01-30T18:31:19;11.50;99.90
37285;DHT22;23172;53.550;9.964;2024-01-30T18:36:21;11.40;99.90
37285;DHT22;23172;53.550;9.964;2024-01-30T18:41:26;11.50;99.90
37285;DHT22;23172;53.550;9.964;2024-01-30T18:46:28;11.50;99.90
37285;DHT22;23172;53.550;9.964;2024-01-30T18:51:31;11.40;99.90
37285;DHT22;23172;53.550;9.964;2024-01-30T18:56:37;11.40;99.90
37285;DHT22;23172;53.550;9.964;2024-01-30T19:01:40;11.40;99.90
37285;DHT22;23172;53.550;9.964;2024-01-30T19:06:41;11.40;99.90
37285;DHT22;23172;53.550;9.964;2024-01-30T19:11:45;11.40;99.90
37285;DHT22;23172;53.550;9.964;2024-01-30T19:16:48;11.40;99.90
37285;DHT22;23172;53.550;9.964;2024-01-30T19:21:50;11.40;99.90
37285;DHT22;23172;53.550;9.964;2024-01-30T19:26:55;11.30;99.90
37285;DHT22;23172;53.550;9.964;2024-01-30T19:31:57;11.30;99.70
37285;DHT22;23172;53.550;9.964;2024-01-30T19:36:59;11.20;99.60
37285;DHT22;23172;53.550;9.964;2024-01-30T19:42:03;11.20;99.50
37285;DHT22;23172;53.550;9.964;2024-01-30T19:47:05;11.20;99.50
37285;DHT22;23172;53.550;9.964;2024-01-30T19:52:10;11.20;99.50
37285;DHT22;23172;53.550;9.964;2024-01-30T19:57:14;11.20;99.60
37285;DHT22;23172;53.550;9.964;2024-01-30T20:02:16;11.10;99.70
37285;DHT22;23172;53.550;9.964;2024-01-30T20:07:20;11.10;99.90
37285;DHT22;23172;53.550;9.964;2024-01-30T20:12:24;11.10;99.90
37285;DHT22;23172;53.550;9.964;2024-01-30T20:17:25;11.00;99.90
37285;DHT22;23172;53.550;9.964;2024-01-30T20:22:27;11.00;99.90
37285;DHT22;23172;53.550;9.964;2024-01-30T20:27:30;11.00;99.90
37285;DHT22;23172;53.550;9.964;2024-01-30T20:32:34;10.90;99.90
37285;DHT22;23172;53.550;9.964;2024-01-30T20:37:36;10.90;99.90
37285;DHT22;23172;53.550;9.964;2024-01-30T20:42:40;10.80;99.90
37285;DHT22;23172;53.550;9.964;2024-01-30T20:47:42;10.70;99.90
37285;DHT22;23172;53.550;9.964;2024-01-30T20:52:44;10.70;99.90
37285;DHT22;23172;53.550;9.964;2024-01-30T20:57:47;10.70;99.90
37285;DHT22;23172;53.550;9.964;2024-01-30T21:02:49;10.70;99.90
37285;DHT22;23172;53.550;9.964;2024-01-30T21:07:52;10.60;99.90
37285;DHT22;23172;53.550;9.964;2024-01-30T21:12:59;10.60;99.90
37285;DHT22;23172;53.550;9.964;2024-01-30T21:18:01;10.60;99.90
37285;DHT22;23172;53.550;9.964;2024-01-30T21:23:04;10.60;99.90
37285;DHT22;23172;53.550;9.964;2024-01-30T21:28:07;10.50;99.90
37285;DHT22;23172;53.550;9.964;2024-01-30T21:33:09;10.50;99.90
37285;DHT22;23172;53.550;9.964;2024-01-30T21:38:11;10.40;99.90
37285;DHT22;23172;53.550;9.964;2024-01-30T21:43:16;10.40;99.90
37285;DHT22;23172;53.550;9.964;2024-01-30T21:48:18;10.40;99.90
37285;DHT22;23172;53.550;9.964;2024-01-30T21:53:20;10.30;99.90
37285;DHT22;23172;53.550;9.964;2024-01-30T21:58:24;10.30;99.90
37285;DHT22;23172;53.550;9.964;2024-01-30T22:03:26;10.30;99.90
37285;DHT22;23172;53.550;9.964;2024-01-30T22:08:28;10.20;99.90
37285;DHT22;23172;53.550;9.964;2024-01-30T22:13:31;10.20;99.90
37285;DHT22;23172;53.550;9.964;2024-01-30T22:18:33;10.10;99.90
37285;DHT22;23172;53.550;9.964;2024-01-30T22:23:35;10.10;99.90
37285;DHT22;23172;53.550;9.964;2024-01-30T22:28:38;10.00;99.90
37285;DHT22;23172;53.550;9.964;2024-01-30T22:33:40;9.90;99.90
